sensor_id;sensor_type;location;lat;lon;timestamp;pressure;altitude;pressure_sealevel;temperature;humidity
15674;BME280;7937;48.090;16.212;2022-12-07T00:00:26;97493.47;;;3.13;82.19
15674;BME280;7937;48.090;16.212;2022-12-07T00:03:28;97496.75;;;3.17;81.88
15674;BME280;7937;48.090;16.212;2022-12-07T00:06:39;97487.34;;;3.14;82.42
15674;BME280;7937;48.090;16.212;2022-12-07T00:09:41;97489.84;;;3.16;81.97
15674;BME280;7937;48.090;16.212;2022-12-07T00:12:43;97497.41;;;3.20;81.41
15674;BME280;7937;48.090;16.212;2022-12-07T00:15:45;97488.38;;;3.27;81.06
15674;BME280;7937;48.090;16.212;2022-12-07T00:18:48;97493.31;;;3.32;80.69
15674;BME280;7937;48.090;16.212;2022-12-07T00:21:50;97496.09;;;3.29;81.65
15674;BME280;7937;48.090;16.212;2022-12-07T00:24:52;97487.69;;;3.24;82.57
15674;BME280;7937;48.090;16.212;2022-12-07T00:27:54;97486.06;;;3.21;82.52
15674;BME280;7937;48.090;16.212;2022-12-07T00:31:09;97492.06;;;3.23;82.11
15674;BME280;7937;48.090;16.212;2022-12-07T00:34:14;97488.88;;;3.18;82.67
15674;BME280;7937;48.090;16.212;2022-12-07T00:37:17;97494.16;;;3.17;82.79
15674;BME280;7937;48.090;16.212;2022-12-07T00:40:19;97480.34;;;3.15;82.43
15674;BME280;7937;48.090;16.212;2022-12-07T00:43:21;97489.09;;;3.14;82.73
15674;BME280;7937;48.090;16.212;2022-12-07T00:46:24;97492.03;;;3.08;82.84
15674;BME280;7937;48.090;16.212;2022-12-07T00:49:26;97475.72;;;3.04;83.52
15674;BME280;7937;48.090;16.212;2022-12-07T00:52:28;97482.53;;;3.07;83.09
15674;BME280;7937;48.090;16.212;2022-12-07T00:55:34;97483.38;;;3.07;82.88
15674;BME280;7937;48.090;16.212;2022-12-07T00:58:36;97486.28;;;3.01;84.13
15674;BME280;7937;48.090;16.212;2022-12-07T01:01:38;97490.34;;;3.07;83.18
15674;BME280;7937;48.090;16.212;2022-12-07T01:04:40;97488.66;;;3.06;83.24
15674;BME280;7937;48.090;16.212;2022-12-07T01:07:42;97483.69;;;3.01;84.38
15674;BME280;7937;48.090;16.212;2022-12-07T01:10:44;97491.50;;;3.01;84.23
15674;BME280;7937;48.090;16.212;2022-12-07T01:13:47;97494.03;;;3.03;84.31
15674;BME280;7937;48.090;16.212;2022-12-07T01:16:48;97487.06;;;3.03;85.34
15674;BME280;7937;48.090;16.212;2022-12-07T01:19:51;97495.81;;;3.02;85.55
15674;BME280;7937;48.090;16.212;2022-12-07T01:22:52;97497.47;;;3.03;84.91
15674;BME280;7937;48.090;16.212;2022-12-07T01:26:00;97488.91;;;3.01;85.53
15674;BME280;7937;48.090;16.212;2022-12-07T01:29:02;97481.16;;;3.00;85.93
15674;BME280;7937;48.090;16.212;2022-12-07T01:32:05;97489.66;;;3.03;87.08
15674;BME280;7937;48.090;16.212;2022-12-07T01:35:07;97485.38;;;3.02;86.27
15674;BME280;7937;48.090;16.212;2022-12-07T01:38:09;97476.91;;;2.99;86.40
15674;BME280;7937;48.090;16.212;2022-12-07T01:41:13;97480.56;;;2.94;86.79
15674;BME280;7937;48.090;16.212;2022-12-07T01:44:30;97478.19;;;2.90;87.63
15674;BME280;7937;48.090;16.212;2022-12-07T01:47:34;97477.69;;;2.83;88.11
15674;BME280;7937;48.090;16.212;2022-12-07T01:50:37;97473.47;;;2.81;88.83
15674;BME280;7937;48.090;16.212;2022-12-07T01:53:43;97472.56;;;2.82;88.97
15674;BME280;7937;48.090;16.212;2022-12-07T01:56:51;97466.34;;;2.84;88.33
15674;BME280;7937;48.090;16.212;2022-12-07T01:59:55;97461.97;;;2.85;88.14
15674;BME280;7937;48.090;16.212;2022-12-07T02:03:22;97462.81;;;2.85;88.26
15674;BME280;7937;48.090;16.212;2022-12-07T02:06:26;97468.81;;;2.87;88.73
15674;BME280;7937;48.090;16.212;2022-12-07T02:09:28;97467.97;;;2.87;88.51
15674;BME280;7937;48.090;16.212;2022-12-07T02:12:30;97468.72;;;2.89;87.97
15674;BME280;7937;48.090;16.212;2022-12-07T02:15:45;97465.34;;;2.87;88.29
15674;BME280;7937;48.090;16.212;2022-12-07T02:22:02;97466.28;;;2.86;87.75
15674;BME280;7937;48.090;16.212;2022-12-07T02:29:09;97461.28;;;2.81;87.71
15674;BME280;7937;48.090;16.212;2022-12-07T02:32:16;97461.38;;;2.80;88.47
15674;BME280;7937;48.090;16.212;2022-12-07T02:38:58;97465.06;;;2.76;88.56
15674;BME280;7937;48.090;16.212;2022-12-07T02:42:07;97468.75;;;2.72;88.32
15674;BME280;7937;48.090;16.212;2022-12-07T02:45:14;97475.97;;;2.67;88.95
15674;BME280;7937;48.090;16.212;2022-12-07T02:48:18;97471.84;;;2.63;88.99
15674;BME280;7937;48.090;16.212;2022-12-07T02:51:22;97465.78;;;2.62;89.34
15674;BME280;7937;48.090;16.212;2022-12-07T02:54:24;97462.09;;;2.66;88.88
15674;BME280;7937;48.090;16.212;2022-12-07T03:01:30;97463.09;;;2.64;89.09
15674;BME280;7937;48.090;16.212;2022-12-07T03:11:14;97467.53;;;2.62;89.60
15674;BME280;7937;48.090;16.212;2022-12-07T03:14:28;97455.38;;;2.62;89.42
15674;BME280;7937;48.090;16.212;2022-12-07T03:17:33;97464.09;;;2.61;89.57
15674;BME280;7937;48.090;16.212;2022-12-07T03:20:38;97464.03;;;2.63;89.43
15674;BME280;7937;48.090;16.212;2022-12-07T03:23:44;97465.63;;;2.65;89.34
15674;BME280;7937;48.090;16.212;2022-12-07T03:27:01;97467.41;;;2.65;89.42
15674;BME280;7937;48.090;16.212;2022-12-07T03:30:05;97463.09;;;2.64;89.23
15674;BME280;7937;48.090;16.212;2022-12-07T03:33:23;97464.94;;;2.62;89.58
15674;BME280;7937;48.090;16.212;2022-12-07T03:37:00;97461.97;;;2.69;89.68
15674;BME280;7937;48.090;16.212;2022-12-07T03:40:13;97469.59;;;2.72;89.28
15674;BME280;7937;48.090;16.212;2022-12-07T03:43:18;97470.34;;;2.74;89.08
15674;BME280;7937;48.090;16.212;2022-12-07T03:50:16;97470.50;;;2.71;89.62
15674;BME280;7937;48.090;16.212;2022-12-07T03:53:26;97481.13;;;2.68;89.52
15674;BME280;7937;48.090;16.212;2022-12-07T03:56:32;97476.75;;;2.69;89.89
15674;BME280;7937;48.090;16.212;2022-12-07T03:59:35;97471.28;;;2.73;89.53
15674;BME280;7937;48.090;16.212;2022-12-07T04:02:39;97469.59;;;2.72;89.93
15674;BME280;7937;48.090;16.212;2022-12-07T04:05:43;97466.22;;;2.70;90.18
15674;BME280;7937;48.090;16.212;2022-12-07T04:08:45;97472.38;;;2.69;90.68
15674;BME280;7937;48.090;16.212;2022-12-07T04:11:47;97463.59;;;2.70;90.71
15674;BME280;7937;48.090;16.212;2022-12-07T04:14:49;97475.66;;;2.73;90.34
15674;BME280;7937;48.090;16.212;2022-12-07T04:17:53;97470.44;;;2.73;90.29
15674;BME280;7937;48.090;16.212;2022-12-07T04:20:56;97467.75;;;2.74;90.57
15674;BME280;7937;48.090;16.212;2022-12-07T04:23:58;97476.41;;;2.75;90.13
15674;BME280;7937;48.090;16.212;2022-12-07T04:27:00;97476.34;;;2.76;90.52
15674;BME280;7937;48.090;16.212;2022-12-07T04:30:03;97472.03;;;2.75;90.20
15674;BME280;7937;48.090;16.212;2022-12-07T04:33:06;97472.97;;;2.74;91.07
15674;BME280;7937;48.090;16.212;2022-12-07T04:36:08;97476.34;;;2.76;91.00
15674;BME280;7937;48.090;16.212;2022-12-07T04:39:27;97477.09;;;2.78;90.53
15674;BME280;7937;48.090;16.212;2022-12-07T04:42:29;97466.56;;;2.80;90.87
15674;BME280;7937;48.090;16.212;2022-12-07T04:45:31;97470.03;;;2.80;90.28
15674;BME280;7937;48.090;16.212;2022-12-07T04:48:33;97470.78;;;2.82;89.85
15674;BME280;7937;48.090;16.212;2022-12-07T04:51:36;97466.41;;;2.83;90.48
15674;BME280;7937;48.090;16.212;2022-12-07T04:54:38;97463.16;;;2.79;90.76
15674;BME280;7937;48.090;16.212;2022-12-07T04:57:40;97466.75;;;2.77;91.13
15674;BME280;7937;48.090;16.212;2022-12-07T05:00:42;97466.75;;;2.77;90.93
15674;BME280;7937;48.090;16.212;2022-12-07T05:03:45;97464.06;;;2.78;91.50
15674;BME280;7937;48.090;16.212;2022-12-07T05:06:47;97464.16;;;2.77;90.88
15674;BME280;7937;48.090;16.212;2022-12-07T05:09:49;97463.31;;;2.76;91.65
15674;BME280;7937;48.090;16.212;2022-12-07T05:12:51;97470.28;;;2.76;91.86
15674;BME280;7937;48.090;16.212;2022-12-07T05:15:53;97465.91;;;2.76;91.94
15674;BME280;7937;48.090;16.212;2022-12-07T05:18:55;97470.22;;;2.77;91.55
15674;BME280;7937;48.090;16.212;2022-12-07T05:21:57;97466.69;;;2.78;91.47
15674;BME280;7937;48.090;16.212;2022-12-07T05:24:59;97470.03;;;2.80;91.23
15674;BME280;7937;48.090;16.212;2022-12-07T05:28:02;97458.75;;;2.80;91.10
15674;BME280;7937;48.090;16.212;2022-12-07T05:31:04;97460.38;;;2.82;90.15
15674;BME280;7937;48.090;16.212;2022-12-07T05:34:06;97457.75;;;2.82;90.44
15674;BME280;7937;48.090;16.212;2022-12-07T05:37:08;97462.91;;;2.84;90.75
15674;BME280;7937;48.090;16.212;2022-12-07T05:40:11;97456.69;;;2.86;89.84
15674;BME280;7937;48.090;16.212;2022-12-07T05:43:13;97459.22;;;2.88;89.46
15674;BME280;7937;48.090;16.212;2022-12-07T05:46:15;97450.56;;;2.87;89.47
15674;BME280;7937;48.090;16.212;2022-12-07T05:49:18;97453.25;;;2.86;89.34
15674;BME280;7937;48.090;16.212;2022-12-07T05:52:20;97463.59;;;2.87;89.27
15674;BME280;7937;48.090;16.212;2022-12-07T05:55:22;97464.59;;;2.85;89.27
15674;BME280;7937;48.090;16.212;2022-12-07T05:58:24;97462.13;;;2.82;89.74
15674;BME280;7937;48.090;16.212;2022-12-07T06:01:44;97462.22;;;2.80;89.86
15674;BME280;7937;48.090;16.212;2022-12-07T06:04:46;97460.63;;;2.78;89.86
15674;BME280;7937;48.090;16.212;2022-12-07T06:07:49;97464.91;;;2.79;89.90
15674;BME280;7937;48.090;16.212;2022-12-07T06:10:51;97460.56;;;2.79;89.37
15674;BME280;7937;48.090;16.212;2022-12-07T06:14:13;97465.00;;;2.77;89.26
15674;BME280;7937;48.090;16.212;2022-12-07T06:17:15;97471.97;;;2.77;89.54
15674;BME280;7937;48.090;16.212;2022-12-07T06:20:17;97465.91;;;2.76;89.42
15674;BME280;7937;48.090;16.212;2022-12-07T06:23:19;97472.81;;;2.77;89.06
15674;BME280;7937;48.090;16.212;2022-12-07T06:26:22;97469.59;;;2.72;89.65
15674;BME280;7937;48.090;16.212;2022-12-07T06:29:24;97467.25;;;2.68;89.79
15674;BME280;7937;48.090;16.212;2022-12-07T06:32:26;97468.31;;;2.64;90.29
15674;BME280;7937;48.090;16.212;2022-12-07T06:35:28;97475.28;;;2.63;90.57
15674;BME280;7937;48.090;16.212;2022-12-07T06:38:30;97471.75;;;2.64;90.66
15674;BME280;7937;48.090;16.212;2022-12-07T06:41:32;97478.66;;;2.65;90.53
15674;BME280;7937;48.090;16.212;2022-12-07T06:44:34;97478.50;;;2.68;90.13
15674;BME280;7937;48.090;16.212;2022-12-07T06:47:36;97481.19;;;2.67;90.01
15674;BME280;7937;48.090;16.212;2022-12-07T06:50:46;97462.03;;;2.68;89.56
15674;BME280;7937;48.090;16.212;2022-12-07T06:53:55;97467.97;;;2.70;89.05
15674;BME280;7937;48.090;16.212;2022-12-07T06:56:58;97464.44;;;2.71;89.02
15674;BME280;7937;48.090;16.212;2022-12-07T07:00:00;97468.81;;;2.70;88.95
15674;BME280;7937;48.090;16.212;2022-12-07T07:03:03;97474.13;;;2.69;88.88
15674;BME280;7937;48.090;16.212;2022-12-07T07:06:06;97474.13;;;2.69;89.01
15674;BME280;7937;48.090;16.212;2022-12-07T07:09:09;97478.50;;;2.68;89.48
15674;BME280;7937;48.090;16.212;2022-12-07T07:12:11;97473.88;;;2.73;87.85
15674;BME280;7937;48.090;16.212;2022-12-07T07:15:13;97475.34;;;2.79;86.98
15674;BME280;7937;48.090;16.212;2022-12-07T07:18:15;97483.16;;;2.79;87.16
15674;BME280;7937;48.090;16.212;2022-12-07T07:21:17;97464.81;;;2.80;86.98
15674;BME280;7937;48.090;16.212;2022-12-07T07:24:19;97473.31;;;2.84;86.44
15674;BME280;7937;48.090;16.212;2022-12-07T07:27:21;97484.50;;;2.86;86.32
15674;BME280;7937;48.090;16.212;2022-12-07T07:30:23;97486.84;;;2.90;85.65
15674;BME280;7937;48.090;16.212;2022-12-07T07:33:25;97490.22;;;2.92;85.20
15674;BME280;7937;48.090;16.212;2022-12-07T07:36:27;97489.22;;;2.95;85.02
15674;BME280;7937;48.090;16.212;2022-12-07T07:39:29;97487.41;;;2.97;85.29
15674;BME280;7937;48.090;16.212;2022-12-07T07:42:31;97494.19;;;3.00;84.92
15674;BME280;7937;48.090;16.212;2022-12-07T07:45:33;97481.09;;;3.01;85.38
15674;BME280;7937;48.090;16.212;2022-12-07T07:48:35;97500.09;;;3.03;85.36
15674;BME280;7937;48.090;16.212;2022-12-07T07:51:37;97497.25;;;3.08;83.16
15674;BME280;7937;48.090;16.212;2022-12-07T07:54:40;97491.78;;;3.12;83.38
15674;BME280;7937;48.090;16.212;2022-12-07T07:57:42;97503.81;;;3.15;84.10
15674;BME280;7937;48.090;16.212;2022-12-07T08:00:46;97509.81;;;3.17;83.25
15674;BME280;7937;48.090;16.212;2022-12-07T08:03:49;97507.84;;;3.20;82.98
15674;BME280;7937;48.090;16.212;2022-12-07T08:06:51;97509.53;;;3.21;81.83
15674;BME280;7937;48.090;16.212;2022-12-07T08:09:53;97508.47;;;3.25;82.21
15674;BME280;7937;48.090;16.212;2022-12-07T08:12:55;97502.25;;;3.28;81.78
15674;BME280;7937;48.090;16.212;2022-12-07T08:16:13;97516.84;;;3.30;81.03
15674;BME280;7937;48.090;16.212;2022-12-07T08:19:17;97517.47;;;3.36;82.08
15674;BME280;7937;48.090;16.212;2022-12-07T08:22:19;97513.88;;;3.38;81.75
15674;BME280;7937;48.090;16.212;2022-12-07T08:25:21;97519.56;;;3.45;80.60
15674;BME280;7937;48.090;16.212;2022-12-07T08:28:26;97513.38;;;3.47;80.54
15674;BME280;7937;48.090;16.212;2022-12-07T08:31:28;97517.47;;;3.51;80.07
15674;BME280;7937;48.090;16.212;2022-12-07T08:34:30;97520.84;;;3.53;78.86
15674;BME280;7937;48.090;16.212;2022-12-07T08:37:32;97535.50;;;3.56;77.62
15674;BME280;7937;48.090;16.212;2022-12-07T08:40:34;97525.56;;;3.62;76.38
15674;BME280;7937;48.090;16.212;2022-12-07T08:43:37;97520.09;;;3.67;76.40
15674;BME280;7937;48.090;16.212;2022-12-07T08:46:46;97517.22;;;3.71;76.51
15674;BME280;7937;48.090;16.212;2022-12-07T08:49:51;97519.66;;;3.75;74.77
15674;BME280;7937;48.090;16.212;2022-12-07T08:52:57;97537.78;;;3.78;74.67
15674;BME280;7937;48.090;16.212;2022-12-07T08:56:00;97527.91;;;3.83;74.44
15674;BME280;7937;48.090;16.212;2022-12-07T08:59:03;97524.53;;;3.81;74.30
15674;BME280;7937;48.090;16.212;2022-12-07T09:02:06;97538.50;;;3.80;72.59
15674;BME280;7937;48.090;16.212;2022-12-07T09:05:08;97534.66;;;3.87;72.95
15674;BME280;7937;48.090;16.212;2022-12-07T09:08:16;97524.78;;;3.92;73.92
15674;BME280;7937;48.090;16.212;2022-12-07T09:11:19;97536.25;;;3.89;73.38
15674;BME280;7937;48.090;16.212;2022-12-07T09:14:28;97537.75;;;3.93;71.31
15674;BME280;7937;48.090;16.212;2022-12-07T09:17:34;97543.88;;;4.08;71.30
15674;BME280;7937;48.090;16.212;2022-12-07T09:20:37;97532.63;;;4.22;71.71
15674;BME280;7937;48.090;16.212;2022-12-07T09:23:41;97527.25;;;4.25;71.65
15674;BME280;7937;48.090;16.212;2022-12-07T09:26:46;97530.38;;;4.16;70.05
15674;BME280;7937;48.090;16.212;2022-12-07T09:29:48;97528.78;;;4.13;70.02
15674;BME280;7937;48.090;16.212;2022-12-07T09:32:50;97521.44;;;4.20;70.32
15674;BME280;7937;48.090;16.212;2022-12-07T09:35:54;97532.56;;;4.23;69.93
15674;BME280;7937;48.090;16.212;2022-12-07T09:38:56;97545.13;;;4.17;69.07
15674;BME280;7937;48.090;16.212;2022-12-07T09:42:03;97531.06;;;4.19;69.40
15674;BME280;7937;48.090;16.212;2022-12-07T09:45:10;97530.66;;;4.41;67.97
15674;BME280;7937;48.090;16.212;2022-12-07T09:51:29;97514.69;;;5.04;65.28
15674;BME280;7937;48.090;16.212;2022-12-07T09:54:35;97513.66;;;5.20;64.90
15674;BME280;7937;48.090;16.212;2022-12-07T09:57:38;97506.34;;;5.40;64.55
15674;BME280;7937;48.090;16.212;2022-12-07T10:00:40;97507.47;;;5.50;64.87
15674;BME280;7937;48.090;16.212;2022-12-07T10:03:51;97489.38;;;5.74;63.07
15674;BME280;7937;48.090;16.212;2022-12-07T10:06:54;97487.50;;;5.76;63.13
15674;BME280;7937;48.090;16.212;2022-12-07T10:09:56;97480.06;;;5.82;63.36
15674;BME280;7937;48.090;16.212;2022-12-07T10:13:10;97485.78;;;5.89;61.98
15674;BME280;7937;48.090;16.212;2022-12-07T10:19:29;97472.44;;;6.06;61.53
15674;BME280;7937;48.090;16.212;2022-12-07T10:22:32;97467.22;;;6.06;59.91
15674;BME280;7937;48.090;16.212;2022-12-07T10:25:36;97461.56;;;6.12;59.70
15674;BME280;7937;48.090;16.212;2022-12-07T10:28:40;97468.47;;;5.86;59.30
15674;BME280;7937;48.090;16.212;2022-12-07T10:31:44;97472.72;;;5.48;60.55
15674;BME280;7937;48.090;16.212;2022-12-07T10:34:47;97470.84;;;5.36;60.73
15674;BME280;7937;48.090;16.212;2022-12-07T10:37:54;97454.22;;;5.37;60.80
15674;BME280;7937;48.090;16.212;2022-12-07T10:41:07;97467.25;;;5.51;60.93
15674;BME280;7937;48.090;16.212;2022-12-07T10:44:21;97455.88;;;5.79;61.33
15674;BME280;7937;48.090;16.212;2022-12-07T10:54:16;97453.91;;;5.41;60.56
15674;BME280;7937;48.090;16.212;2022-12-07T10:57:43;97448.16;;;5.63;60.83
15674;BME280;7937;48.090;16.212;2022-12-07T11:04:38;97454.84;;;5.40;59.57
15674;BME280;7937;48.090;16.212;2022-12-07T11:11:46;97473.88;;;4.87;61.47
15674;BME280;7937;48.090;16.212;2022-12-07T11:15:11;97454.00;;;4.99;61.16
15674;BME280;7937;48.090;16.212;2022-12-07T11:18:24;97458.19;;;5.15;61.55
15674;BME280;7937;48.090;16.212;2022-12-07T11:24:35;97465.19;;;5.01;60.38
15674;BME280;7937;48.090;16.212;2022-12-07T11:34:25;97449.78;;;4.82;59.43
15674;BME280;7937;48.090;16.212;2022-12-07T11:37:34;97452.88;;;4.74;59.17
15674;BME280;7937;48.090;16.212;2022-12-07T11:40:40;97463.59;;;4.70;60.14
15674;BME280;7937;48.090;16.212;2022-12-07T11:43:54;97453.53;;;4.64;61.10
15674;BME280;7937;48.090;16.212;2022-12-07T11:47:16;97455.38;;;4.48;63.02
15674;BME280;7937;48.090;16.212;2022-12-07T11:56:49;97453.66;;;4.02;61.59
15674;BME280;7937;48.090;16.212;2022-12-07T11:59:57;97447.38;;;3.91;62.86
15674;BME280;7937;48.090;16.212;2022-12-07T12:03:21;97453.97;;;3.98;63.58
15674;BME280;7937;48.090;16.212;2022-12-07T12:06:29;97453.34;;;4.23;62.88
15674;BME280;7937;48.090;16.212;2022-12-07T12:09:35;97447.06;;;4.69;62.72
15674;BME280;7937;48.090;16.212;2022-12-07T12:13:59;97440.94;;;4.99;61.20
15674;BME280;7937;48.090;16.212;2022-12-07T12:20:32;97428.44;;;5.84;59.83
15674;BME280;7937;48.090;16.212;2022-12-07T12:26:53;97423.66;;;6.18;57.61
15674;BME280;7937;48.090;16.212;2022-12-07T12:30:02;97414.97;;;6.55;57.36
15674;BME280;7937;48.090;16.212;2022-12-07T12:33:20;97420.47;;;7.01;56.17
15674;BME280;7937;48.090;16.212;2022-12-07T12:39:35;97408.81;;;8.60;52.08
15674;BME280;7937;48.090;16.212;2022-12-07T12:42:53;97412.63;;;9.56;47.33
15674;BME280;7937;48.090;16.212;2022-12-07T12:49:40;97417.59;;;11.96;40.89
15674;BME280;7937;48.090;16.212;2022-12-07T12:53:23;97411.03;;;9.65;45.98
15674;BME280;7937;48.090;16.212;2022-12-07T12:56:39;97427.72;;;7.71;50.44
15674;BME280;7937;48.090;16.212;2022-12-07T13:02:58;97425.59;;;6.02;56.67
15674;BME280;7937;48.090;16.212;2022-12-07T13:09:31;97435.41;;;5.17;58.52
15674;BME280;7937;48.090;16.212;2022-12-07T13:12:36;97426.03;;;4.99;58.91
15674;BME280;7937;48.090;16.212;2022-12-07T13:18:44;97426.72;;;4.60;60.52
15674;BME280;7937;48.090;16.212;2022-12-07T13:21:46;97423.81;;;4.51;61.24
15674;BME280;7937;48.090;16.212;2022-12-07T13:24:48;97429.50;;;4.43;62.48
15674;BME280;7937;48.090;16.212;2022-12-07T13:27:57;97425.69;;;4.34;62.95
15674;BME280;7937;48.090;16.212;2022-12-07T13:34:40;97441.84;;;4.11;64.67
15674;BME280;7937;48.090;16.212;2022-12-07T13:37:44;97437.94;;;4.04;64.09
15674;BME280;7937;48.090;16.212;2022-12-07T13:44:14;97440.84;;;3.84;61.75
15674;BME280;7937;48.090;16.212;2022-12-07T13:50:30;97439.75;;;3.72;63.81
15674;BME280;7937;48.090;16.212;2022-12-07T13:53:33;97444.34;;;3.68;63.17
15674;BME280;7937;48.090;16.212;2022-12-07T13:56:35;97453.16;;;3.66;62.26
15674;BME280;7937;48.090;16.212;2022-12-07T13:59:38;97440.28;;;3.63;61.94
15674;BME280;7937;48.090;16.212;2022-12-07T14:03:02;97443.06;;;3.60;62.59
15674;BME280;7937;48.090;16.212;2022-12-07T14:09:20;97443.06;;;3.60;61.74
15674;BME280;7937;48.090;16.212;2022-12-07T14:12:24;97441.22;;;3.62;62.06
15674;BME280;7937;48.090;16.212;2022-12-07T14:15:34;97438.78;;;3.59;62.32
15674;BME280;7937;48.090;16.212;2022-12-07T14:18:39;97443.56;;;3.51;63.05
15674;BME280;7937;48.090;16.212;2022-12-07T14:21:41;97431.72;;;3.45;63.67
15674;BME280;7937;48.090;16.212;2022-12-07T14:24:44;97437.53;;;3.34;64.04
15674;BME280;7937;48.090;16.212;2022-12-07T14:27:55;97438.97;;;3.24;64.18
15674;BME280;7937;48.090;16.212;2022-12-07T14:30:59;97444.63;;;3.17;64.07
15674;BME280;7937;48.090;16.212;2022-12-07T14:34:01;97447.72;;;3.08;64.77
15674;BME280;7937;48.090;16.212;2022-12-07T14:37:04;97447.53;;;2.95;65.51
15674;BME280;7937;48.090;16.212;2022-12-07T14:40:16;97451.78;;;2.80;66.02
15674;BME280;7937;48.090;16.212;2022-12-07T14:43:19;97448.31;;;2.64;68.04
15674;BME280;7937;48.090;16.212;2022-12-07T14:46:21;97455.53;;;2.59;68.31
15674;BME280;7937;48.090;16.212;2022-12-07T14:49:24;97447.53;;;2.62;68.15
15674;BME280;7937;48.090;16.212;2022-12-07T14:52:33;97449.63;;;2.55;68.65
15674;BME280;7937;48.090;16.212;2022-12-07T14:55:55;97447.72;;;2.59;68.13
15674;BME280;7937;48.090;16.212;2022-12-07T14:58:57;97452.16;;;2.57;68.59
15674;BME280;7937;48.090;16.212;2022-12-07T15:01:59;97448.88;;;2.53;69.13
15674;BME280;7937;48.090;16.212;2022-12-07T15:05:01;97459.13;;;2.56;69.14
15674;BME280;7937;48.090;16.212;2022-12-07T15:08:05;97460.97;;;2.54;69.27
15674;BME280;7937;48.090;16.212;2022-12-07T15:11:12;97455.19;;;2.49;70.42
15674;BME280;7937;48.090;16.212;2022-12-07T15:14:14;97464.06;;;2.45;70.15
15674;BME280;7937;48.090;16.212;2022-12-07T15:17:16;97462.69;;;2.38;69.52
15674;BME280;7937;48.090;16.212;2022-12-07T15:20:32;97471.13;;;2.26;70.22
15674;BME280;7937;48.090;16.212;2022-12-07T15:23:34;97473.81;;;2.25;70.43
15674;BME280;7937;48.090;16.212;2022-12-07T15:26:37;97474.56;;;2.27;69.72
15674;BME280;7937;48.090;16.212;2022-12-07T15:29:39;97474.66;;;2.25;69.81
15674;BME280;7937;48.090;16.212;2022-12-07T15:32:41;97474.19;;;2.17;69.96
15674;BME280;7937;48.090;16.212;2022-12-07T15:35:44;97473.50;;;2.13;70.26
15674;BME280;7937;48.090;16.212;2022-12-07T15:38:47;97480.78;;;2.07;70.63
15674;BME280;7937;48.090;16.212;2022-12-07T15:42:09;97469.81;;;2.00;71.07
15674;BME280;7937;48.090;16.212;2022-12-07T15:45:12;97471.19;;;1.90;71.42
15674;BME280;7937;48.090;16.212;2022-12-07T15:48:15;97470.78;;;1.80;71.86
15674;BME280;7937;48.090;16.212;2022-12-07T15:51:28;97471.16;;;1.73;72.29
15674;BME280;7937;48.090;16.212;2022-12-07T15:54:31;97472.72;;;1.77;71.60
15674;BME280;7937;48.090;16.212;2022-12-07T15:57:35;97474.69;;;1.72;71.89
15674;BME280;7937;48.090;16.212;2022-12-07T16:00:38;97461.59;;;1.56;72.68
15674;BME280;7937;48.090;16.212;2022-12-07T16:03:41;97468.84;;;1.50;73.04
15674;BME280;7937;48.090;16.212;2022-12-07T16:06:43;97464.22;;;1.37;73.48
15674;BME280;7937;48.090;16.212;2022-12-07T16:09:46;97467.59;;;1.21;74.54
15674;BME280;7937;48.090;16.212;2022-12-07T16:12:48;97467.53;;;1.03;74.93
15674;BME280;7937;48.090;16.212;2022-12-07T16:15:50;97468.97;;;0.90;75.39
15674;BME280;7937;48.090;16.212;2022-12-07T16:18:52;97462.75;;;0.76;75.95
15674;BME280;7937;48.090;16.212;2022-12-07T16:21:54;97478.06;;;0.61;76.92
15674;BME280;7937;48.090;16.212;2022-12-07T16:24:56;97477.78;;;0.49;77.47
15674;BME280;7937;48.090;16.212;2022-12-07T16:27:58;97480.69;;;0.41;77.55
15674;BME280;7937;48.090;16.212;2022-12-07T16:31:10;97484.41;;;0.35;78.09
15674;BME280;7937;48.090;16.212;2022-12-07T16:34:13;97487.13;;;0.32;78.15
15674;BME280;7937;48.090;16.212;2022-12-07T16:37:16;97490.00;;;0.26;78.49
15674;BME280;7937;48.090;16.212;2022-12-07T16:40:18;97491.22;;;0.18;78.90
15674;BME280;7937;48.090;16.212;2022-12-07T16:43:20;97486.44;;;0.09;78.94
15674;BME280;7937;48.090;16.212;2022-12-07T16:46:22;97492.38;;;0.11;79.42
15674;BME280;7937;48.090;16.212;2022-12-07T16:49:24;97492.63;;;0.05;79.43
15674;BME280;7937;48.090;16.212;2022-12-07T16:52:27;97487.66;;;0.00;79.77
15674;BME280;7937;48.090;16.212;2022-12-07T16:55:29;97493.94;;;-0.06;80.17
15674;BME280;7937;48.090;16.212;2022-12-07T16:58:31;97494.13;;;-0.10;80.30
15674;BME280;7937;48.090;16.212;2022-12-07T17:01:33;97490.94;;;0.04;80.93
15674;BME280;7937;48.090;16.212;2022-12-07T17:04:36;97483.91;;;0.27;80.53
15674;BME280;7937;48.090;16.212;2022-12-07T17:07:41;97500.63;;;0.41;79.65
15674;BME280;7937;48.090;16.212;2022-12-07T17:10:44;97488.69;;;0.57;79.86
15674;BME280;7937;48.090;16.212;2022-12-07T17:13:46;97488.91;;;0.71;79.14
15674;BME280;7937;48.090;16.212;2022-12-07T17:17:07;97491.44;;;0.91;78.50
15674;BME280;7937;48.090;16.212;2022-12-07T17:20:12;97497.50;;;1.10;77.38
15674;BME280;7937;48.090;16.212;2022-12-07T17:23:14;97504.38;;;1.11;77.15
15674;BME280;7937;48.090;16.212;2022-12-07T17:26:20;97486.63;;;1.21;76.75
15674;BME280;7937;48.090;16.212;2022-12-07T17:29:23;97491.69;;;1.24;76.74
15674;BME280;7937;48.090;16.212;2022-12-07T17:32:25;97498.63;;;1.24;76.65
15674;BME280;7937;48.090;16.212;2022-12-07T17:35:28;97487.69;;;1.17;76.98
15674;BME280;7937;48.090;16.212;2022-12-07T17:38:30;97495.69;;;1.13;77.61
15674;BME280;7937;48.090;16.212;2022-12-07T17:41:34;97495.44;;;1.19;77.14
15674;BME280;7937;48.090;16.212;2022-12-07T17:44:54;97492.88;;;1.17;77.21
15674;BME280;7937;48.090;16.212;2022-12-07T17:47:56;97487.81;;;1.14;77.61
15674;BME280;7937;48.090;16.212;2022-12-07T17:50:59;97494.06;;;1.10;77.35
15674;BME280;7937;48.090;16.212;2022-12-07T17:54:20;97491.97;;;0.99;77.90
15674;BME280;7937;48.090;16.212;2022-12-07T17:57:23;97493.94;;;0.94;78.22
15674;BME280;7937;48.090;16.212;2022-12-07T18:00:25;97497.00;;;0.84;78.58
15674;BME280;7937;48.090;16.212;2022-12-07T18:03:28;97491.94;;;0.81;78.46
15674;BME280;7937;48.090;16.212;2022-12-07T18:06:31;97492.88;;;0.80;78.64
15674;BME280;7937;48.090;16.212;2022-12-07T18:09:34;97489.28;;;0.82;78.64
15674;BME280;7937;48.090;16.212;2022-12-07T18:12:38;97489.34;;;0.81;78.91